Time;durP1;ratioP1;P1;durP2;ratioP2;P2;SDS_P1;SDS_P2;PMS_P1;PMS_P2;Temp;Humidity;BMP_temperature;BMP_pressure;BME280_temperature;BME280_humidity;BME280_pressure;Samples;Min_cycle;Max_cycle;Signal;HPM_P1;HPM_P2
2021/12/11 00:00:20;;;;;;;1.63;1.30;;;;;;;;;;5073593;28;20933;-76
2021/12/11 00:02:55;;;;;;;2.13;1.10;;;;;;;;;;5067191;28;20444;-76
2021/12/11 00:05:22;;;;;;;1.20;1.00;;;;;;;;;;5061222;28;20860;-75
2021/12/11 00:07:50;;;;;;;2.77;1.40;;;;;;;;;;5072325;28;20961;-76
2021/12/11 00:10:18;;;;;;;1.93;1.10;;;;;;;;;;5059274;28;20455;-81
2021/12/11 00:12:49;;;;;;;2.83;1.23;;;;;;;;;;5073256;28;20465;-77
2021/12/11 00:15:20;;;;;;;1.33;1.17;;;;;;;;;;5073861;28;20958;-75
2021/12/11 00:17:47;;;;;;;1.57;1.13;;;;;;;;;;5060312;28;20448;-74
2021/12/11 00:20:17;;;;;;;1.40;0.97;;;;;;;;;;5067256;28;20449;-73
2021/12/11 00:22:44;;;;;;;1.27;1.00;;;;;;;;;;5067738;28;20706;-73
2021/12/11 00:25:12;;;;;;;1.40;0.93;;;;;;;;;;5073831;28;20447;-75
2021/12/11 00:27:41;;;;;;;1.60;1.10;;;;;;;;;;5054382;28;20495;-74
2021/12/11 00:30:10;;;;;;;1.30;1.20;;;;;;;;;;5061980;28;20552;-74
2021/12/11 00:32:39;;;;;;;1.30;0.80;;;;;;;;;;5073433;28;20449;-75
2021/12/11 00:35:09;;;;;;;1.40;0.90;;;;;;;;;;5068591;28;20451;-74
2021/12/11 00:37:36;;;;;;;1.37;1.20;;;;;;;;;;5068873;28;20449;-74
2021/12/11 00:40:06;;;;;;;1.30;1.10;;;;;;;;;;5063643;28;21090;-74
2021/12/11 00:42:34;;;;;;;1.30;1.00;;;;;;;;;;5073150;28;20556;-74
2021/12/11 00:45:02;;;;;;;1.27;1.03;;;;;;;;;;5073077;28;21049;-74
2021/12/11 00:47:31;;;;;;;1.50;0.70;;;;;;;;;;5073185;28;20489;-73
2021/12/11 00:50:01;;;;;;;1.13;1.00;;;;;;;;;;5061485;28;20976;-74
2021/12/11 00:52:29;;;;;;;1.73;1.17;;;;;;;;;;5064720;28;20945;-74
2021/12/11 00:54:57;;;;;;;1.70;1.13;;;;;;;;;;5073088;28;20441;-75
2021/12/11 00:57:24;;;;;;;1.67;1.00;;;;;;;;;;5072301;28;20453;-74
2021/12/11 01:00:00;;;;;;;1.27;1.00;;;;;;;;;;5072494;28;20799;-75
2021/12/11 01:02:27;;;;;;;1.30;0.80;;;;;;;;;;5065022;28;20552;-75
2021/12/11 01:04:54;;;;;;;1.00;0.90;;;;;;;;;;5073017;28;20564;-73
2021/12/11 01:07:30;;;;;;;1.77;1.17;;;;;;;;;;5073089;28;20480;-73
2021/12/11 01:09:59;;;;;;;1.50;1.30;;;;;;;;;;5072380;28;20871;-73
2021/12/11 01:12:35;;;;;;;2.97;0.90;;;;;;;;;;5063941;28;20941;-74
2021/12/11 01:15:07;;;;;;;5.13;0.87;;;;;;;;;;5069108;28;20453;-74
2021/12/11 01:17:42;;;;;;;1.13;0.90;;;;;;;;;;5072778;28;20450;-74
2021/12/11 01:20:12;;;;;;;1.03;0.87;;;;;;;;;;5066628;28;20488;-74
2021/12/11 01:22:42;;;;;;;1.37;1.10;;;;;;;;;;5069592;28;20438;-75
2021/12/11 01:25:12;;;;;;;1.40;0.80;;;;;;;;;;5071336;28;20964;-75
2021/12/11 01:27:40;;;;;;;1.20;0.90;;;;;;;;;;5057853;28;20489;-75
2021/12/11 01:30:09;;;;;;;1.43;1.10;;;;;;;;;;5070080;28;20450;-75
2021/12/11 01:32:37;;;;;;;1.33;1.13;;;;;;;;;;5072624;28;20534;-75
2021/12/11 01:35:06;;;;;;;1.07;0.97;;;;;;;;;;5053474;28;20517;-75
2021/12/11 01:37:33;;;;;;;0.80;0.70;;;;;;;;;;5064554;28;20453;-75
2021/12/11 01:40:04;;;;;;;1.17;1.07;;;;;;;;;;5059268;28;20450;-75
2021/12/11 01:42:34;;;;;;;0.93;0.80;;;;;;;;;;5072001;28;20466;-76
2021/12/11 01:45:02;;;;;;;1.50;1.07;;;;;;;;;;5071630;28;20473;-75
2021/12/11 01:47:31;;;;;;;2.03;0.93;;;;;;;;;;5071564;28;20530;-74
2021/12/11 01:50:02;;;;;;;1.20;1.00;;;;;;;;;;5071036;28;20447;-75
2021/12/11 01:52:36;;;;;;;1.43;1.00;;;;;;;;;;5072380;28;20800;-74
2021/12/11 01:55:06;;;;;;;1.20;1.10;;;;;;;;;;5069050;28;20449;-74
2021/12/11 01:57:33;;;;;;;1.27;0.80;;;;;;;;;;5071382;28;20533;-75
2021/12/11 02:00:03;;;;;;;0.83;0.70;;;;;;;;;;5070779;28;20971;-74
2021/12/11 02:02:31;;;;;;;1.10;0.90;;;;;;;;;;5071520;28;20446;-75
2021/12/11 02:04:59;;;;;;;3.83;1.23;;;;;;;;;;5071432;28;20446;-74
2021/12/11 02:07:28;;;;;;;1.70;1.10;;;;;;;;;;5071702;28;20480;-75
2021/12/11 02:09:58;;;;;;;1.13;0.90;;;;;;;;;;5059377;28;20457;-73
2021/12/11 02:12:31;;;;;;;1.20;0.90;;;;;;;;;;5071870;28;20552;-73
2021/12/11 02:15:01;;;;;;;0.90;0.80;;;;;;;;;;5065440;28;20864;-74
2021/12/11 02:17:29;;;;;;;1.10;0.93;;;;;;;;;;5070563;28;20880;-74
2021/12/11 02:19:59;;;;;;;1.47;0.77;;;;;;;;;;5069022;28;20540;-74
2021/12/11 02:22:29;;;;;;;0.87;0.77;;;;;;;;;;5068989;28;20451;-74
2021/12/11 02:24:57;;;;;;;1.63;0.80;;;;;;;;;;5069186;28;20888;-73
2021/12/11 02:27:26;;;;;;;1.37;0.60;;;;;;;;;;5070338;28;20490;-74
2021/12/11 02:29:56;;;;;;;1.87;0.80;;;;;;;;;;5061830;28;20522;-72
2021/12/11 02:32:29;;;;;;;1.00;0.60;;;;;;;;;;5062752;28;21029;-72
2021/12/11 02:35:00;;;;;;;0.70;0.60;;;;;;;;;;5069179;28;20965;-72
2021/12/11 02:37:36;;;;;;;0.80;0.70;;;;;;;;;;5064411;28;20449;-72
2021/12/11 02:40:08;;;;;;;0.80;0.53;;;;;;;;;;5069836;28;20453;-73
2021/12/11 02:42:37;;;;;;;1.00;0.60;;;;;;;;;;5070067;28;20549;-73
2021/12/11 02:45:07;;;;;;;0.80;0.70;;;;;;;;;;5071034;28;21046;-74
2021/12/11 02:47:36;;;;;;;0.90;0.50;;;;;;;;;;5070805;28;20487;-75
2021/12/11 02:50:10;;;;;;;0.70;0.60;;;;;;;;;;5062977;28;20446;-74
2021/12/11 02:52:41;;;;;;;0.70;0.50;;;;;;;;;;5068874;28;20543;-73
2021/12/11 02:55:10;;;;;;;0.90;0.60;;;;;;;;;;5060857;28;20443;-73
2021/12/11 02:57:38;;;;;;;0.70;0.50;;;;;;;;;;5071157;28;20456;-73
2021/12/11 03:00:12;;;;;;;0.83;0.70;;;;;;;;;;5069093;28;20452;-73
2021/12/11 03:02:44;;;;;;;0.70;0.47;;;;;;;;;;5063973;28;20452;-73
2021/12/11 03:05:13;;;;;;;1.80;0.70;;;;;;;;;;5070566;28;21036;-73
2021/12/11 03:07:49;;;;;;;0.80;0.60;;;;;;;;;;5070608;28;20606;-73
2021/12/11 03:10:17;;;;;;;0.90;0.83;;;;;;;;;;5066527;28;20477;-73
2021/12/11 03:12:44;;;;;;;4.90;0.90;;;;;;;;;;5070789;28;20453;-73
2021/12/11 03:15:12;;;;;;;1.20;0.60;;;;;;;;;;5067020;28;20457;-73
2021/12/11 03:17:40;;;;;;;0.70;0.50;;;;;;;;;;5071304;28;20445;-72
2021/12/11 03:20:08;;;;;;;1.30;0.80;;;;;;;;;;5067972;28;20460;-73
2021/12/11 03:22:37;;;;;;;3.90;0.60;;;;;;;;;;5070190;28;20450;-73
2021/12/11 03:25:07;;;;;;;0.97;0.87;;;;;;;;;;5069840;28;20945;-73
2021/12/11 03:27:34;;;;;;;1.03;0.90;;;;;;;;;;5070681;28;20485;-73
2021/12/11 03:30:02;;;;;;;0.77;0.60;;;;;;;;;;5066517;28;20471;-73
2021/12/11 03:32:29;;;;;;;0.97;0.67;;;;;;;;;;5052299;28;20449;-73
2021/12/11 03:34:56;;;;;;;1.30;0.70;;;;;;;;;;5052418;28;20965;-73
2021/12/11 03:37:24;;;;;;;1.07;0.73;;;;;;;;;;5063663;28;20456;-72
2021/12/11 03:39:52;;;;;;;1.07;0.97;;;;;;;;;;5068498;28;20956;-73
2021/12/11 03:42:22;;;;;;;1.27;1.07;;;;;;;;;;5070245;28;20458;-72
2021/12/11 03:44:50;;;;;;;1.73;1.20;;;;;;;;;;5069519;28;20516;-72
2021/12/11 03:47:20;;;;;;;0.83;0.83;;;;;;;;;;5065183;28;20568;-73
2021/12/11 03:49:47;;;;;;;1.13;1.03;;;;;;;;;;5065752;28;20460;-70
2021/12/11 03:52:16;;;;;;;1.67;1.37;;;;;;;;;;5063692;28;20450;-72
2021/12/11 03:54:43;;;;;;;1.70;1.20;;;;;;;;;;5070572;28;20449;-73
2021/12/11 03:57:12;;;;;;;1.80;1.20;;;;;;;;;;5070172;28;20831;-73
2021/12/11 03:59:41;;;;;;;2.93;1.30;;;;;;;;;;5069754;28;20448;-72
2021/12/11 04:02:10;;;;;;;1.33;1.23;;;;;;;;;;5065963;28;20868;-73
2021/12/11 04:04:41;;;;;;;1.30;1.00;;;;;;;;;;5070526;28;20452;-73
2021/12/11 04:07:10;;;;;;;1.50;1.20;;;;;;;;;;5069092;28;20872;-73
2021/12/11 04:09:38;;;;;;;2.30;1.40;;;;;;;;;;5065235;28;20456;-71
2021/12/11 04:12:08;;;;;;;1.50;1.30;;;;;;;;;;5063000;28;20460;-73
2021/12/11 04:14:36;;;;;;;1.60;1.30;;;;;;;;;;5067677;28;20446;-73
2021/12/11 04:17:06;;;;;;;1.30;1.20;;;;;;;;;;5054602;28;20449;-73
2021/12/11 04:19:34;;;;;;;1.40;1.30;;;;;;;;;;5067828;28;20457;-72
2021/12/11 04:22:01;;;;;;;1.07;0.87;;;;;;;;;;5066324;28;20549;-72
2021/12/11 04:24:30;;;;;;;1.80;1.70;;;;;;;;;;5073374;28;20444;-72
2021/12/11 04:26:59;;;;;;;1.20;1.10;;;;;;;;;;5066536;28;20479;-73
2021/12/11 04:29:28;;;;;;;2.17;1.47;;;;;;;;;;5068108;28;20452;-73
2021/12/11 04:31:55;;;;;;;3.03;1.30;;;;;;;;;;5060029;28;20456;-73
2021/12/11 04:34:25;;;;;;;1.80;1.70;;;;;;;;;;5074225;28;20445;-72
2021/12/11 04:36:55;;;;;;;1.50;1.40;;;;;;;;;;5069368;28;20525;-72
2021/12/11 04:39:24;;;;;;;1.30;1.20;;;;;;;;;;5064816;28;20519;-71
2021/12/11 04:41:58;;;;;;;1.93;1.73;;;;;;;;;;5069257;28;20794;-73
2021/12/11 04:44:32;;;;;;;1.30;1.20;;;;;;;;;;5061791;28;20572;-72
2021/12/11 04:46:59;;;;;;;2.77;1.60;;;;;;;;;;5054839;28;20518;-72
2021/12/11 04:49:34;;;;;;;1.73;1.63;;;;;;;;;;5068911;28;20488;-72
2021/12/11 04:52:07;;;;;;;2.03;1.77;;;;;;;;;;5064247;28;20442;-74
2021/12/11 04:54:48;;;;;;;2.10;1.90;;;;;;;;;;5061498;28;20441;-73
2021/12/11 04:57:54;;;;;;;2.20;2.00;;;;;;;;;;5072872;28;20460;-72
2021/12/11 05:00:32;;;;;;;2.57;2.37;;;;;;;;;;5073026;28;20528;-72
2021/12/11 05:03:26;;;;;;;2.10;1.90;;;;;;;;;;5072600;28;20448;-72
2021/12/11 05:06:13;;;;;;;2.27;2.07;;;;;;;;;;5072188;28;20456;-71
2021/12/11 05:11:35;;;;;;;4.10;1.90;;;;;;;;;;5057313;28;20432;-72
2021/12/11 05:14:02;;;;;;;1.83;1.40;;;;;;;;;;5053806;28;20456;-73
2021/12/11 05:16:29;;;;;;;2.87;2.00;;;;;;;;;;5067695;28;20453;-72
2021/12/11 05:18:56;;;;;;;2.53;2.33;;;;;;;;;;5072674;28;20461;-72
2021/12/11 05:21:25;;;;;;;2.80;2.60;;;;;;;;;;5068334;28;20468;-72
2021/12/11 05:23:54;;;;;;;2.40;2.20;;;;;;;;;;5060124;28;20888;-72
2021/12/11 05:26:22;;;;;;;2.70;2.30;;;;;;;;;;5072781;28;20507;-75
2021/12/11 05:28:50;;;;;;;2.37;2.00;;;;;;;;;;5072572;28;20483;-70
2021/12/11 05:31:17;;;;;;;2.50;2.27;;;;;;;;;;5071910;28;20449;-75
2021/12/11 05:33:45;;;;;;;2.67;2.43;;;;;;;;;;5068193;28;20890;-75
2021/12/11 05:36:13;;;;;;;2.40;2.20;;;;;;;;;;5068376;28;20912;-75
2021/12/11 05:38:41;;;;;;;2.53;2.33;;;;;;;;;;5065372;28;20472;-75
2021/12/11 05:41:10;;;;;;;2.93;2.63;;;;;;;;;;5068688;28;20450;-75
2021/12/11 05:43:38;;;;;;;2.23;2.13;;;;;;;;;;5067284;28;20986;-75
2021/12/11 05:46:05;;;;;;;2.73;2.37;;;;;;;;;;5056166;28;20448;-74
2021/12/11 05:48:34;;;;;;;2.70;2.40;;;;;;;;;;5072076;28;20483;-74
2021/12/11 05:51:02;;;;;;;2.60;2.30;;;;;;;;;;5061506;28;20965;-74
2021/12/11 05:53:31;;;;;;;2.47;2.27;;;;;;;;;;5066327;28;20442;-75
2021/12/11 05:56:02;;;;;;;2.70;2.50;;;;;;;;;;5071596;28;20499;-74
2021/12/11 05:58:46;;;;;;;2.93;2.53;;;;;;;;;;5068585;28;20568;-72
2021/12/11 06:01:15;;;;;;;4.33;2.60;;;;;;;;;;5051632;28;20457;-75
2021/12/11 06:03:43;;;;;;;2.60;2.37;;;;;;;;;;5064934;28;20471;-72
2021/12/11 06:06:10;;;;;;;2.20;2.00;;;;;;;;;;5070690;28;20442;-72
2021/12/11 06:08:37;;;;;;;3.43;2.93;;;;;;;;;;5059467;28;20477;-72
2021/12/11 06:11:06;;;;;;;2.80;2.47;;;;;;;;;;5070670;28;20449;-72
2021/12/11 06:13:33;;;;;;;2.40;2.20;;;;;;;;;;5071534;28;20810;-73
2021/12/11 06:16:01;;;;;;;2.97;2.60;;;;;;;;;;5070962;28;20450;-73
2021/12/11 06:18:29;;;;;;;2.60;2.40;;;;;;;;;;5071499;28;20495;-73
2021/12/11 06:20:56;;;;;;;2.40;2.03;;;;;;;;;;5062909;28;20451;-72
2021/12/11 06:23:23;;;;;;;2.70;2.50;;;;;;;;;;5071653;28;20442;-72
2021/12/11 06:25:51;;;;;;;3.17;2.77;;;;;;;;;;5065929;28;20453;-73
2021/12/11 06:28:19;;;;;;;2.70;2.50;;;;;;;;;;5065702;28;20477;-72
2021/12/11 06:30:47;;;;;;;7.40;3.10;;;;;;;;;;5071172;28;20442;-72
2021/12/11 06:33:14;;;;;;;3.23;2.77;;;;;;;;;;5068284;28;20979;-75
2021/12/11 06:35:44;;;;;;;2.57;2.37;;;;;;;;;;5071294;28;20456;-73
2021/12/11 06:38:14;;;;;;;2.50;2.30;;;;;;;;;;5070394;28;20790;-72
2021/12/11 06:40:42;;;;;;;3.23;2.80;;;;;;;;;;5070198;28;20816;-74
2021/12/11 06:43:09;;;;;;;3.30;3.10;;;;;;;;;;5070481;28;20489;-75
2021/12/11 06:45:38;;;;;;;4.00;3.20;;;;;;;;;;5071182;28;20444;-72
2021/12/11 06:48:06;;;;;;;3.17;2.87;;;;;;;;;;5066550;28;20481;-72
2021/12/11 06:50:33;;;;;;;4.20;3.80;;;;;;;;;;5060012;28;20452;-71
2021/12/11 06:53:04;;;;;;;4.57;3.63;;;;;;;;;;5066521;28;20447;-72
2021/12/11 06:55:32;;;;;;;4.20;3.87;;;;;;;;;;5071424;28;20439;-73
2021/12/11 06:57:59;;;;;;;3.30;3.00;;;;;;;;;;5070444;28;20479;-72
2021/12/11 07:00:28;;;;;;;4.50;4.10;;;;;;;;;;5068730;28;20811;-72
2021/12/11 07:02:57;;;;;;;4.10;3.70;;;;;;;;;;5070506;28;20465;-75
2021/12/11 07:05:24;;;;;;;4.53;4.10;;;;;;;;;;5070964;28;20449;-72
2021/12/11 07:07:52;;;;;;;5.90;4.63;;;;;;;;;;5069986;28;20984;-75
2021/12/11 07:10:20;;;;;;;4.17;3.77;;;;;;;;;;5067329;28;20965;-72
2021/12/11 07:12:47;;;;;;;3.67;3.37;;;;;;;;;;5062339;28;20564;-73
2021/12/11 07:15:15;;;;;;;4.10;3.70;;;;;;;;;;5069355;28;20445;-75
2021/12/11 07:17:42;;;;;;;4.30;3.80;;;;;;;;;;5069990;28;20528;-72
2021/12/11 07:20:12;;;;;;;4.70;4.20;;;;;;;;;;5060812;28;20489;-72
2021/12/11 07:22:41;;;;;;;3.53;3.23;;;;;;;;;;5064088;28;20449;-73
2021/12/11 07:25:12;;;;;;;4.30;3.90;;;;;;;;;;5060318;28;20875;-73
2021/12/11 07:27:39;;;;;;;3.53;3.20;;;;;;;;;;5070099;28;20881;-72
2021/12/11 07:30:07;;;;;;;4.00;3.60;;;;;;;;;;5060472;28;20536;-73
2021/12/11 07:32:34;;;;;;;3.90;3.50;;;;;;;;;;5069608;28;20456;-73
2021/12/11 07:35:01;;;;;;;4.63;3.93;;;;;;;;;;5064266;28;20867;-74
2021/12/11 07:37:30;;;;;;;4.40;4.00;;;;;;;;;;5062930;28;20462;-73
2021/12/11 07:39:57;;;;;;;5.83;4.40;;;;;;;;;;5068945;28;20451;-75
2021/12/11 07:42:24;;;;;;;4.43;4.13;;;;;;;;;;5069890;28;20467;-73
2021/12/11 07:44:51;;;;;;;4.73;3.70;;;;;;;;;;5070198;28;20561;-73
2021/12/11 07:47:19;;;;;;;4.90;4.50;;;;;;;;;;5059973;28;20914;-73
2021/12/11 07:49:46;;;;;;;5.00;4.30;;;;;;;;;;5064462;28;20481;-73
2021/12/11 07:52:13;;;;;;;5.30;4.17;;;;;;;;;;5063279;28;20455;-73
2021/12/11 07:54:41;;;;;;;5.20;4.70;;;;;;;;;;5051226;28;20439;-73
2021/12/11 07:57:09;;;;;;;6.00;5.07;;;;;;;;;;5066806;28;20464;-73
2021/12/11 07:59:36;;;;;;;5.90;4.47;;;;;;;;;;5064660;28;20539;-74
2021/12/11 08:02:03;;;;;;;5.30;4.80;;;;;;;;;;5056747;28;20447;-73
2021/12/11 08:04:30;;;;;;;4.30;3.87;;;;;;;;;;5073727;28;20445;-73
2021/12/11 08:06:57;;;;;;;6.30;4.93;;;;;;;;;;5071286;28;20534;-73
2021/12/11 08:09:25;;;;;;;7.10;5.63;;;;;;;;;;5072643;28;20561;-72
2021/12/11 08:11:54;;;;;;;5.13;4.53;;;;;;;;;;5073480;28;20443;-69
2021/12/11 08:14:22;;;;;;;6.47;5.00;;;;;;;;;;5073656;28;20540;-74
2021/12/11 08:16:53;;;;;;;9.07;6.47;;;;;;;;;;5073665;28;20532;-73
2021/12/11 08:19:21;;;;;;;11.70;7.40;;;;;;;;;;5071243;28;20476;-73
2021/12/11 08:22:00;;;;;;;6.13;5.53;;;;;;;;;;5060233;28;20453;-72
2021/12/11 08:24:28;;;;;;;7.50;6.37;;;;;;;;;;5073473;28;20532;-73
2021/12/11 08:26:58;;;;;;;8.43;6.60;;;;;;;;;;5065507;28;20448;-72
2021/12/11 08:29:26;;;;;;;8.30;6.10;;;;;;;;;;5066893;28;20487;-72
2021/12/11 08:31:55;;;;;;;8.20;6.50;;;;;;;;;;5073243;28;20536;-69
2021/12/11 08:34:23;;;;;;;8.70;6.10;;;;;;;;;;5067362;28;20525;-72
2021/12/11 08:36:50;;;;;;;7.50;6.10;;;;;;;;;;5062144;28;20469;-74
2021/12/11 08:39:19;;;;;;;5.90;5.30;;;;;;;;;;5059748;28;20460;-72
2021/12/11 08:41:47;;;;;;;6.83;6.13;;;;;;;;;;5056378;28;20469;-75
2021/12/11 08:44:17;;;;;;;8.30;5.80;;;;;;;;;;5067015;28;21286;-72
2021/12/11 08:46:48;;;;;;;11.27;7.10;;;;;;;;;;5070118;28;20903;-74
2021/12/11 08:49:17;;;;;;;11.00;7.00;;;;;;;;;;5065733;28;20474;-74
2021/12/11 08:51:48;;;;;;;8.73;6.60;;;;;;;;;;5073323;28;20445;-77
2021/12/11 08:54:17;;;;;;;11.80;7.70;;;;;;;;;;5056440;28;20474;-74
2021/12/11 08:56:45;;;;;;;9.57;7.23;;;;;;;;;;5064865;28;20938;-75
2021/12/11 08:59:13;;;;;;;11.40;8.20;;;;;;;;;;5071518;28;20447;-74
2021/12/11 09:01:44;;;;;;;9.20;7.40;;;;;;;;;;5072907;28;20445;-75
2021/12/11 09:04:15;;;;;;;9.27;7.47;;;;;;;;;;5067920;28;20857;-74
2021/12/11 09:06:44;;;;;;;10.43;8.43;;;;;;;;;;5056647;28;20930;-77
2021/12/11 09:09:13;;;;;;;8.03;7.20;;;;;;;;;;5068482;28;20489;-77
2021/12/11 09:11:41;;;;;;;12.20;10.37;;;;;;;;;;5067677;28;20473;-77
2021/12/11 09:14:10;;;;;;;9.93;6.20;;;;;;;;;;5072557;28;20452;-76
2021/12/11 09:16:40;;;;;;;9.00;7.40;;;;;;;;;;5074163;28;20536;-74
2021/12/11 09:19:10;;;;;;;10.00;6.60;;;;;;;;;;5072863;28;20450;-72
2021/12/11 09:21:40;;;;;;;7.70;6.10;;;;;;;;;;5070468;28;20478;-75
2021/12/11 09:24:09;;;;;;;6.80;5.83;;;;;;;;;;5063178;28;20524;-76
2021/12/11 09:26:38;;;;;;;7.67;6.17;;;;;;;;;;5061428;28;20518;-75
2021/12/11 09:29:08;;;;;;;9.90;7.37;;;;;;;;;;5073513;28;20523;-74
2021/12/11 09:31:37;;;;;;;10.20;6.53;;;;;;;;;;5066778;28;20448;-77
2021/12/11 09:34:06;;;;;;;9.00;6.77;;;;;;;;;;5072347;28;20449;-77
2021/12/11 09:36:36;;;;;;;9.47;6.33;;;;;;;;;;5072665;28;20476;-77
2021/12/11 09:39:06;;;;;;;8.20;5.80;;;;;;;;;;5072762;28;20449;-75
2021/12/11 09:41:35;;;;;;;7.53;4.97;;;;;;;;;;5068843;28;20773;-75
2021/12/11 09:44:07;;;;;;;5.50;4.40;;;;;;;;;;5071864;28;20479;-78
2021/12/11 09:46:36;;;;;;;7.40;5.90;;;;;;;;;;5072247;28;20474;-75
2021/12/11 09:49:05;;;;;;;6.60;5.80;;;;;;;;;;5071391;28;20896;-72
2021/12/11 09:51:36;;;;;;;8.60;6.03;;;;;;;;;;5056957;28;20524;-72
2021/12/11 09:54:06;;;;;;;7.57;6.37;;;;;;;;;;5057780;28;20453;-74
2021/12/11 09:56:34;;;;;;;9.33;5.77;;;;;;;;;;5072038;28;20536;-76
2021/12/11 09:59:05;;;;;;;7.23;5.57;;;;;;;;;;5071396;28;20816;-76
2021/12/11 10:01:39;;;;;;;8.50;5.70;;;;;;;;;;5071731;28;20454;-77
2021/12/11 10:04:09;;;;;;;7.23;5.30;;;;;;;;;;5071472;28;20810;-77
2021/12/11 10:06:50;;;;;;;6.90;5.20;;;;;;;;;;5058960;28;20907;-76
2021/12/11 10:09:19;;;;;;;8.90;5.40;;;;;;;;;;5051419;28;20477;-76
2021/12/11 10:11:57;;;;;;;5.93;5.30;;;;;;;;;;5067521;28;20451;-76
2021/12/11 10:14:25;;;;;;;5.33;4.53;;;;;;;;;;5071833;28;21007;-77
2021/12/11 10:16:57;;;;;;;5.57;4.90;;;;;;;;;;5071036;28;20446;-70
2021/12/11 10:19:29;;;;;;;4.83;4.17;;;;;;;;;;5068831;28;20455;-73
2021/12/11 10:21:59;;;;;;;8.90;5.17;;;;;;;;;;5053689;28;20449;-75
2021/12/11 10:24:28;;;;;;;6.77;4.43;;;;;;;;;;5065548;28;20476;-75
2021/12/11 10:26:56;;;;;;;5.20;4.40;;;;;;;;;;5066520;28;20449;-73
2021/12/11 10:29:24;;;;;;;5.87;4.40;;;;;;;;;;5071083;28;20981;-76
2021/12/11 10:31:54;;;;;;;3.60;3.23;;;;;;;;;;5071305;28;20452;-76
2021/12/11 10:34:25;;;;;;;5.97;5.40;;;;;;;;;;5065738;28;20545;-77
2021/12/11 10:36:56;;;;;;;5.40;4.00;;;;;;;;;;5071591;28;20445;-76
2021/12/11 10:39:24;;;;;;;4.20;3.53;;;;;;;;;;5061730;28;20453;-75
2021/12/11 10:41:52;;;;;;;4.23;3.47;;;;;;;;;;5064996;28;20536;-77
2021/12/11 10:44:20;;;;;;;5.30;3.97;;;;;;;;;;5054213;28;20508;-77
2021/12/11 10:46:50;;;;;;;5.53;3.80;;;;;;;;;;5062228;28;20434;-77
2021/12/11 10:49:18;;;;;;;4.93;4.50;;;;;;;;;;5053579;28;20512;-76
2021/12/11 10:51:49;;;;;;;5.20;4.00;;;;;;;;;;5058488;28;20453;-75
2021/12/11 10:54:18;;;;;;;5.10;3.67;;;;;;;;;;5057303;28;20436;-75
2021/12/11 10:56:47;;;;;;;6.93;4.60;;;;;;;;;;5071249;28;20951;-76
2021/12/11 10:59:17;;;;;;;5.00;3.70;;;;;;;;;;5058377;28;20953;-76
2021/12/11 11:01:45;;;;;;;7.37;4.40;;;;;;;;;;5066694;28;20454;-76
2021/12/11 11:04:15;;;;;;;7.37;4.40;;;;;;;;;;5050310;28;20776;-76
2021/12/11 11:06:45;;;;;;;5.50;4.87;;;;;;;;;;5060248;28;20448;-75
2021/12/11 11:09:15;;;;;;;4.77;4.00;;;;;;;;;;5055768;28;20868;-74
2021/12/11 11:11:43;;;;;;;7.60;4.43;;;;;;;;;;5053292;28;20494;-75
2021/12/11 11:14:11;;;;;;;6.23;4.73;;;;;;;;;;5052778;28;20457;-75
2021/12/11 11:16:40;;;;;;;4.07;3.27;;;;;;;;;;5058059;28;20455;-74
2021/12/11 11:19:07;;;;;;;6.10;3.60;;;;;;;;;;5063171;28;20449;-77
2021/12/11 11:21:36;;;;;;;4.73;4.07;;;;;;;;;;5064213;28;21029;-73
2021/12/11 11:24:06;;;;;;;3.50;3.20;;;;;;;;;;5064130;28;20454;-75
2021/12/11 11:26:35;;;;;;;5.23;4.17;;;;;;;;;;5054611;28;20452;-74
2021/12/11 11:29:04;;;;;;;4.30;3.90;;;;;;;;;;5062075;28;20453;-75
2021/12/11 11:31:34;;;;;;;4.40;4.00;;;;;;;;;;5067849;28;20445;-74
2021/12/11 11:34:01;;;;;;;4.73;4.20;;;;;;;;;;5064237;28;20457;-74
2021/12/11 11:36:32;;;;;;;6.17;4.60;;;;;;;;;;5065852;28;20528;-76
2021/12/11 11:39:00;;;;;;;4.97;3.67;;;;;;;;;;5063916;28;20810;-75
2021/12/11 11:41:29;;;;;;;3.53;3.17;;;;;;;;;;5063121;28;20943;-75
2021/12/11 11:43:58;;;;;;;5.30;3.40;;;;;;;;;;5053116;28;20477;-76
2021/12/11 11:46:25;;;;;;;6.67;4.43;;;;;;;;;;5070860;28;20951;-74
2021/12/11 11:48:54;;;;;;;3.40;3.10;;;;;;;;;;5071599;28;20449;-70
2021/12/11 11:51:24;;;;;;;4.83;3.90;;;;;;;;;;5057749;28;20477;-76
2021/12/11 11:53:53;;;;;;;3.97;3.50;;;;;;;;;;5058831;28;20527;-76
2021/12/11 11:56:22;;;;;;;4.80;3.80;;;;;;;;;;5070909;28;20460;-74
2021/12/11 11:58:50;;;;;;;3.47;3.17;;;;;;;;;;5060365;28;20457;-75
2021/12/11 12:01:20;;;;;;;4.00;3.40;;;;;;;;;;5071227;28;20484;-75
2021/12/11 12:03:48;;;;;;;5.80;4.13;;;;;;;;;;5059764;28;20541;-76
2021/12/11 12:06:21;;;;;;;7.63;4.77;;;;;;;;;;5060446;28;20454;-75
2021/12/11 12:08:49;;;;;;;3.90;3.20;;;;;;;;;;5069186;28;20507;-75
2021/12/11 12:11:20;;;;;;;3.97;3.23;;;;;;;;;;5070948;28;20481;-75
2021/12/11 12:13:47;;;;;;;4.57;3.50;;;;;;;;;;5058583;28;20479;-75
2021/12/11 12:16:15;;;;;;;4.53;3.70;;;;;;;;;;5069407;28;20525;-76
2021/12/11 12:18:44;;;;;;;5.50;4.07;;;;;;;;;;5070785;28;20781;-74
2021/12/11 12:21:13;;;;;;;5.10;3.63;;;;;;;;;;5059812;28;20458;-75
2021/12/11 12:23:41;;;;;;;4.47;3.60;;;;;;;;;;5064205;28;20525;-75
2021/12/11 12:26:10;;;;;;;4.43;3.30;;;;;;;;;;5061783;28;20448;-76
2021/12/11 12:28:37;;;;;;;5.17;4.00;;;;;;;;;;5064382;28;20450;-76
2021/12/11 12:31:06;;;;;;;3.67;3.23;;;;;;;;;;5059029;28;20571;-76
2021/12/11 12:33:34;;;;;;;5.37;3.80;;;;;;;;;;5066791;28;20897;-76
2021/12/11 12:36:04;;;;;;;5.27;3.87;;;;;;;;;;5070313;28;20460;-75
2021/12/11 12:38:32;;;;;;;5.67;4.33;;;;;;;;;;5069622;28;20455;-76
2021/12/11 12:41:01;;;;;;;5.97;4.27;;;;;;;;;;5070490;28;20445;-76
2021/12/11 12:43:55;;;;;;;4.50;4.10;;;;;;;;;;5069566;28;20485;-73
2021/12/11 12:46:24;;;;;;;5.83;4.80;;;;;;;;;;5050352;28;20934;-74
2021/12/11 12:48:51;;;;;;;5.07;3.67;;;;;;;;;;5065360;28;20441;-75
2021/12/11 12:51:20;;;;;;;4.17;3.30;;;;;;;;;;5056195;28;20484;-75
2021/12/11 12:53:47;;;;;;;3.90;3.60;;;;;;;;;;5056393;28;20454;-74
2021/12/11 12:56:16;;;;;;;4.00;3.60;;;;;;;;;;5057267;28;20445;-75
2021/12/11 12:58:46;;;;;;;4.27;3.27;;;;;;;;;;5058369;28;20541;-75
2021/12/11 13:01:16;;;;;;;5.87;2.80;;;;;;;;;;5061178;28;20949;-76
2021/12/11 13:03:43;;;;;;;4.60;3.30;;;;;;;;;;5064429;28;20473;-76
2021/12/11 13:06:12;;;;;;;3.80;3.40;;;;;;;;;;5069149;28;20453;-76
2021/12/11 13:08:42;;;;;;;3.90;3.33;;;;;;;;;;5069483;28;20941;-76
2021/12/11 13:11:12;;;;;;;3.40;3.10;;;;;;;;;;5069502;28;20476;-76
2021/12/11 13:13:39;;;;;;;3.60;3.20;;;;;;;;;;5069978;28;20509;-76
2021/12/11 13:16:08;;;;;;;2.83;2.63;;;;;;;;;;5069553;28;20455;-76
2021/12/11 13:18:36;;;;;;;4.60;3.40;;;;;;;;;;5069734;28;20536;-75
2021/12/11 13:21:06;;;;;;;3.70;3.30;;;;;;;;;;5065335;28;20454;-77
2021/12/11 13:23:34;;;;;;;5.20;3.83;;;;;;;;;;5054974;28;20619;-76
2021/12/11 13:26:04;;;;;;;4.17;3.70;;;;;;;;;;5065368;28;20450;-77
2021/12/11 13:28:34;;;;;;;7.70;3.77;;;;;;;;;;5065201;28;20480;-77
2021/12/11 13:31:04;;;;;;;3.83;2.90;;;;;;;;;;5069053;28;20835;-76
2021/12/11 13:33:31;;;;;;;7.30;4.13;;;;;;;;;;5069642;28;20484;-77
2021/12/11 13:36:00;;;;;;;4.80;3.47;;;;;;;;;;5069070;28;20449;-76
2021/12/11 13:38:28;;;;;;;4.63;3.80;;;;;;;;;;5066039;28;20507;-77
2021/12/11 13:40:57;;;;;;;5.67;4.53;;;;;;;;;;5055625;28;20505;-76
2021/12/11 13:43:26;;;;;;;16.53;11.53;;;;;;;;;;5069416;28;20477;-77
2021/12/11 13:45:54;;;;;;;5.50;4.20;;;;;;;;;;5061534;28;20450;-74
2021/12/11 13:48:22;;;;;;;4.37;3.73;;;;;;;;;;5051092;28;20465;-74
2021/12/11 13:50:51;;;;;;;4.27;3.87;;;;;;;;;;5054174;28;20485;-75
2021/12/11 13:53:20;;;;;;;5.03;4.00;;;;;;;;;;5058625;28;20477;-74
2021/12/11 13:55:47;;;;;;;5.33;3.40;;;;;;;;;;5065717;28;20937;-75
2021/12/11 13:58:15;;;;;;;4.00;3.60;;;;;;;;;;5068468;28;20442;-75
2021/12/11 14:00:44;;;;;;;5.50;4.50;;;;;;;;;;5068739;28;21021;-75
2021/12/11 14:03:13;;;;;;;3.90;3.50;;;;;;;;;;5065845;28;20472;-75
2021/12/11 14:05:40;;;;;;;10.07;3.73;;;;;;;;;;5051722;28;20442;-75
2021/12/11 14:08:10;;;;;;;5.50;4.23;;;;;;;;;;5056462;28;20769;-75
2021/12/11 14:10:37;;;;;;;5.90;3.77;;;;;;;;;;5055905;28;20576;-75
2021/12/11 14:13:06;;;;;;;2.50;2.30;;;;;;;;;;5055460;28;20453;-76
2021/12/11 14:15:34;;;;;;;6.97;4.87;;;;;;;;;;5062013;28;20453;-75
2021/12/11 14:18:03;;;;;;;5.70;3.97;;;;;;;;;;5062177;28;20451;-76
2021/12/11 14:20:32;;;;;;;4.90;3.87;;;;;;;;;;5061486;28;20445;-75
2021/12/11 14:22:59;;;;;;;4.63;4.03;;;;;;;;;;5051971;28;20999;-75
2021/12/11 14:25:32;;;;;;;5.13;3.70;;;;;;;;;;5056126;28;20460;-75
2021/12/11 14:28:00;;;;;;;5.50;3.80;;;;;;;;;;5067775;28;20453;-75
2021/12/11 14:30:27;;;;;;;5.77;4.27;;;;;;;;;;5068466;28;20487;-74
2021/12/11 14:32:54;;;;;;;4.83;3.93;;;;;;;;;;5067874;28;20453;-74
2021/12/11 14:35:25;;;;;;;6.13;4.20;;;;;;;;;;5068733;28;20815;-74
2021/12/11 14:37:53;;;;;;;5.70;3.90;;;;;;;;;;5068137;28;20456;-75
2021/12/11 14:40:21;;;;;;;4.63;3.90;;;;;;;;;;5068958;28;20796;-75
2021/12/11 14:42:49;;;;;;;5.10;4.50;;;;;;;;;;5068659;28;20908;-75
2021/12/11 14:45:18;;;;;;;7.87;4.30;;;;;;;;;;5067728;28;20455;-73
2021/12/11 14:47:46;;;;;;;5.87;4.73;;;;;;;;;;5068014;28;20455;-75
2021/12/11 14:50:14;;;;;;;6.47;4.23;;;;;;;;;;5058636;28;20487;-75
2021/12/11 14:52:43;;;;;;;4.90;4.20;;;;;;;;;;5058172;28;20460;-75
2021/12/11 14:55:12;;;;;;;5.73;4.07;;;;;;;;;;5059370;28;20933;-75
2021/12/11 14:57:39;;;;;;;5.80;4.00;;;;;;;;;;5067844;28;20449;-75